Pagina principale
METAR-TAF:

METAR-TAF

Aeroporti :

Mthatha, Sudafrica

latitudine: 31-32-47S, longitudine: 028-40-31E, altezza: 740 m

Osservazione

Il bollettino è stato emesso 29 minuti fa, alle 16:00 UTC
Vento 11 kt da est/sud-est
Temperature 17°C
Umidità 72%
Pressione 1015 hPa
Visibilità: 8000 m
Nubi sparse ad un'altezza di 3000 ft
Poco nuvoloso ad un'altezza di 4500 ft, Cumulonembo.

METAR: FAUT 201600Z 12011KT 8000 SCT030 FEW045CB 17/12 Q1015

Ora: 18:29 (16:29 UTC)

Previsione

Il bollettino è stato emesso 7 ore e 29 minuti fa, alle 09:00 UTC
Previsione valida dal 20 alle 10 UTC al 20 alle 18 UTC
Vento 10 kt da est
Visibilità 10 km o più
Nuvoloso ad un'altezza di 2000 ft
Probabilità 40% :
Temporaneamente
dal 20 alle 16 UTC al 20 alle 18 UTC
Visibilità: 6000 m
Nuvoloso ad un'altezza di 1200 ft
pioggia debole

TAF: FAUT 200900Z 2010/2018 10010KT 9999 BKN020 TX22/2012Z TN13/2018Z PROB40 TEMPO 2016/2018 6000 -RA BKN012

Osservazioni e previsioni meteorologiche di più di 4000 aeroporti (messaggi METAR e TAF).

Le stazioni disponibili sono rappresentate dai dischi gialli e rossi sulla carta.

Puntare il mouse per vedere il nome della stazione.

Clicca sopra per visualizzare le osservazioni e previsioni meteorologiche.

Per cambiare la mappa : fare clic sui pulsanti verdi con una croce nera per ingrandire, il pulsante verde con un trattino per diminuire, o sulla freccia verde per le mappe adiacenti.


METAR-TAF: